Humboldt Bay — A8OL4 — position and weather

sailwx.info

Track history (hours):
 
Tides and Currents Weather Stations Pressure Air Temp Water Temp Dewpoint Dewpoint Depression Visibility Wind Speed Wind Dir Waves Ship Positions

Humboldt Bay

Last reported at 2015-Jan-22 06:20 UTC. Time now 2015-Jan-28 22:15 UTC.
Position N 40°34' W 071°10'.

Length 147 m; draft 5.9 m.

Type: Cargo ship. MMSI: 636013649.

Date/timePositionNaut miles runAvg speedWind from/ knotsBaromVisibWave heightAir tempDewpointWater temp
2015-Jan-22 06:20N 40°34' W 071°10'1316.6
2015-Jan-22 05:33N 40°46' W 071°15'1616.4
2015-Jan-22 04:33N 41°02' W 071°20'1515.4
2015-Jan-22 03:33N 41°17' W 071°14'1212.0
2015-Jan-22 02:33N 41°25' W 071°02'1211.2
2015-Jan-22 01:26N 41°36' W 070°53'2 1.3
2015-Jan-21 23:31N 41°38' W 070°55'0 0.0
2015-Jan-21 22:50N 41°38' W 070°55'0 0.1
2015-Jan-21 22:44N 41°38' W 070°55'0 0.0
2015-Jan-21 22:33N 41°38' W 070°55'0 0.0
2015-Jan-21 21:27N 41°38' W 070°55'0 0.0
2015-Jan-21 17:25N 41°38' W 070°55'0 0.0
2015-Jan-21 13:32N 41°38' W 070°55'0 0.0
2015-Jan-21 09:21N 41°38' W 070°55'0 0.0
2015-Jan-20 16:22N 41°38' W 070°55'0 0.0
2015-Jan-20 11:09N 41°38' W 070°55'0 0.0
2015-Jan-19 04:05N 41°38' W 070°55'0 0.0
2015-Jan-18 20:13N 41°38' W 070°55'0 0.0
2015-Jan-18 17:32N 41°38' W 070°55'0 0.0
2015-Jan-18 15:25N 41°38' W 070°55'0 0.0
2015-Jan-18 05:29N 41°38' W 070°55'0 0.0
2015-Jan-18 04:06N 41°38' W 070°55'0 0.0
2015-Jan-18 03:15N 41°38' W 070°55'0 0.0
2015-Jan-18 02:26N 41°38' W 070°55'0 0.0
2015-Jan-18 01:25N 41°38' W 070°55'0 0.0
2015-Jan-17 23:22N 41°38' W 070°55'0 0.0
2015-Jan-17 20:22N 41°38' W 070°55'0 0.0
2015-Jan-17 16:10N 41°38' W 070°55'0 0.0
2015-Jan-16 21:17N 41°38' W 070°55'0 0.0
2015-Jan-16 18:12N 41°38' W 070°55'0 0.0
2015-Jan-16 12:06N 41°38' W 070°55'0 0.0
2015-Jan-16 11:33N 41°38' W 070°55'0 0.0
2015-Jan-16 10:06N 41°38' W 070°55'0 0.0
2015-Jan-16 09:33N 41°38' W 070°55'0 0.0
2015-Jan-16 08:17N 41°38' W 070°55'0 0.0
2015-Jan-16 07:23N 41°38' W 070°55'0 0.0
2015-Jan-16 06:32N 41°38' W 070°55'0 0.0
2015-Jan-16 05:33N 41°38' W 070°55'0 0.0
2015-Jan-16 04:33N 41°38' W 070°55'0 0.0
2015-Jan-16 03:33N 41°38' W 070°55'0 0.0
2015-Jan-16 02:32N 41°38' W 070°55'0 0.0
2015-Jan-16 01:33N 41°38' W 070°55'0 0.0
2015-Jan-16 00:29N 41°38' W 070°55'0 0.0
2015-Jan-15 23:08N 41°38' W 070°55'0 0.0
2015-Jan-15 22:12N 41°38' W 070°55'0 0.0
2015-Jan-15 15:24N 41°38' W 070°55'0 0.0
2015-Jan-15 13:33N 41°38' W 070°55'0 0.0
2015-Jan-15 12:21N 41°38' W 070°55'5 4.7
2015-Jan-15 11:14N 41°33' W 070°52'10 9.5
2015-Jan-15 10:14N 41°27' W 071°01'912.6
2015-Jan-15 09:33N 41°22' W 071°11'5 5.1
2015-Jan-15 08:33N 41°20' W 071°17'0 0.0
2015-Jan-15 07:33N 41°20' W 071°17'0 0.0
2015-Jan-15 06:33N 41°20' W 071°17'0 0.0
2015-Jan-15 05:30N 41°20' W 071°17'0 0.0
2015-Jan-15 04:33N 41°20' W 071°17'0 0.0
2015-Jan-15 03:33N 41°20' W 071°17'0 0.0
2015-Jan-15 02:33N 41°20' W 071°17'0 0.0
2015-Jan-15 01:33N 41°20' W 071°17'0 0.0
2015-Jan-15 00:30N 41°20' W 071°17'0 0.0
2015-Jan-14 23:33N 41°20' W 071°17'1 1.3
2015-Jan-14 22:33N 41°19' W 071°17'8 8.4
2015-Jan-14 21:33N 41°11' W 071°21'1111.2
2015-Jan-14 20:34N 41°01' W 071°14'1515.4
2015-Jan-14 19:34N 40°52' W 070°58'1716.0
2015-Jan-14 18:29N 40°41' W 070°40'1515.9
2015-Jan-14 17:33N 40°33' W 070°24'1716.7
2015-Jan-14 16:33N 40°34' W 070°02'1616.6
2015-Jan-14 15:34N 40°34' W 069°40'1716.5
2015-Jan-14 14:31N 40°34' W 069°18'  
Track history (hours):
 
Tides and Currents Weather Stations Pressure Air Temp Water Temp Dewpoint Dewpoint Depression Visibility Wind Speed Wind Dir Waves Ship Positions

Humboldt Bay

Last reported at 2015-Jan-22 06:20 UTC. Time now 2015-Jan-28 22:15 UTC.
Position N 40°34' W 071°10'.

Length 147 m; draft 5.9 m.

Type: Cargo ship. MMSI: 636013649.

Date/timePositionNaut miles runAvg speedWind from/ knotsBaromVisibWave heightAir tempDewpointWater temp
2015-Jan-22 06:20N 40°34' W 071°10'1316.6
2015-Jan-22 05:33N 40°46' W 071°15'1616.4
2015-Jan-22 04:33N 41°02' W 071°20'1515.4
2015-Jan-22 03:33N 41°17' W 071°14'1212.0
2015-Jan-22 02:33N 41°25' W 071°02'1211.2
2015-Jan-22 01:26N 41°36' W 070°53'2 1.3
2015-Jan-21 23:31N 41°38' W 070°55'0 0.0
2015-Jan-21 22:50N 41°38' W 070°55'0 0.1
2015-Jan-21 22:44N 41°38' W 070°55'0 0.0
2015-Jan-21 22:33N 41°38' W 070°55'0 0.0
2015-Jan-21 21:27N 41°38' W 070°55'0 0.0
2015-Jan-21 17:25N 41°38' W 070°55'0 0.0
2015-Jan-21 13:32N 41°38' W 070°55'0 0.0
2015-Jan-21 09:21N 41°38' W 070°55'0 0.0
2015-Jan-20 16:22N 41°38' W 070°55'0 0.0
2015-Jan-20 11:09N 41°38' W 070°55'0 0.0
2015-Jan-19 04:05N 41°38' W 070°55'0 0.0
2015-Jan-18 20:13N 41°38' W 070°55'0 0.0
2015-Jan-18 17:32N 41°38' W 070°55'0 0.0
2015-Jan-18 15:25N 41°38' W 070°55'0 0.0
2015-Jan-18 05:29N 41°38' W 070°55'0 0.0
2015-Jan-18 04:06N 41°38' W 070°55'0 0.0
2015-Jan-18 03:15N 41°38' W 070°55'0 0.0
2015-Jan-18 02:26N 41°38' W 070°55'0 0.0
2015-Jan-18 01:25N 41°38' W 070°55'0 0.0
2015-Jan-17 23:22N 41°38' W 070°55'0 0.0
2015-Jan-17 20:22N 41°38' W 070°55'0 0.0
2015-Jan-17 16:10N 41°38' W 070°55'0 0.0
2015-Jan-16 21:17N 41°38' W 070°55'0 0.0
2015-Jan-16 18:12N 41°38' W 070°55'0 0.0
2015-Jan-16 12:06N 41°38' W 070°55'0 0.0
2015-Jan-16 11:33N 41°38' W 070°55'0 0.0
2015-Jan-16 10:06N 41°38' W 070°55'0 0.0
2015-Jan-16 09:33N 41°38' W 070°55'0 0.0
2015-Jan-16 08:17N 41°38' W 070°55'0 0.0
2015-Jan-16 07:23N 41°38' W 070°55'0 0.0
2015-Jan-16 06:32N 41°38' W 070°55'0 0.0
2015-Jan-16 05:33N 41°38' W 070°55'0 0.0
2015-Jan-16 04:33N 41°38' W 070°55'0 0.0
2015-Jan-16 03:33N 41°38' W 070°55'0 0.0
2015-Jan-16 02:32N 41°38' W 070°55'0 0.0
2015-Jan-16 01:33N 41°38' W 070°55'0 0.0
2015-Jan-16 00:29N 41°38' W 070°55'0 0.0
2015-Jan-15 23:08N 41°38' W 070°55'0 0.0
2015-Jan-15 22:12N 41°38' W 070°55'0 0.0
2015-Jan-15 15:24N 41°38' W 070°55'0 0.0
2015-Jan-15 13:33N 41°38' W 070°55'0 0.0
2015-Jan-15 12:21N 41°38' W 070°55'5 4.7
2015-Jan-15 11:14N 41°33' W 070°52'10 9.5
2015-Jan-15 10:14N 41°27' W 071°01'912.6
2015-Jan-15 09:33N 41°22' W 071°11'5 5.1
2015-Jan-15 08:33N 41°20' W 071°17'0 0.0
2015-Jan-15 07:33N 41°20' W 071°17'0 0.0
2015-Jan-15 06:33N 41°20' W 071°17'0 0.0
2015-Jan-15 05:30N 41°20' W 071°17'0 0.0
2015-Jan-15 04:33N 41°20' W 071°17'0 0.0
2015-Jan-15 03:33N 41°20' W 071°17'0 0.0
2015-Jan-15 02:33N 41°20' W 071°17'0 0.0
2015-Jan-15 01:33N 41°20' W 071°17'0 0.0
2015-Jan-15 00:30N 41°20' W 071°17'0 0.0
2015-Jan-14 23:33N 41°20' W 071°17'1 1.3
2015-Jan-14 22:33N 41°19' W 071°17'8 8.4
2015-Jan-14 21:33N 41°11' W 071°21'1111.2
2015-Jan-14 20:34N 41°01' W 071°14'1515.4
2015-Jan-14 19:34N 40°52' W 070°58'1716.0
2015-Jan-14 18:29N 40°41' W 070°40'1515.9
2015-Jan-14 17:33N 40°33' W 070°24'1716.7
2015-Jan-14 16:33N 40°34' W 070°02'1616.6
2015-Jan-14 15:34N 40°34' W 069°40'1716.5
2015-Jan-14 14:31N 40°34' W 069°18'  

Dump ship's entire track history